НПС Мелковка

Карта отелей и гостиниц, располагающихся рядом с аэропортом НПС Мелковка :

НПС Мелковка Марий Эл 56° 25' 1.1316" N, 46° 5' 31.2792" E
Код аэродрома ИКАО
HET5
Код аэродрома RU
ХЕТ5
Координаты
N56.41698° E046.09202°
Превышение над уровнем моря
91
Основная полоса
05/23
Курс магнитный
051,8/231,8
Длина основной ВПП
21
Ширина основной ВПП
18
Покрытие основной ВПП
Твёрдое
Освещение ВПП
Нет
Тип: 
Вертодром
Класс аэродрома: 
Принадлежность: 
ГА
Статус: 
Действующий
Сайт: 
E-mail аэродрома: 
Страна: 
Россия
Регион: 
Марий Эл
Город: 
Дополнительная информация: 
Оператор: нефтеперекачивающая станция магистрального нефтепровода.

Найти трансфер

С помощью этой формы Вы можете найти трансфер из аэропорта НПС Мелковка в город, аэропорт или вокзал:

Карта места

Javascript is required to view this map.

Погода в аэропортах:

Авиационная погода в Платове

Регион: 
Погода METAR: 
URRP 262030Z 25009MPS 0900 0550NE R23/1300N FG VV001 04/04 Q1017 R23/290051 TEMPO 25010G16MPS RMK QBB040 OBST OBSC QFE755/1007
Время наблюдения
2021-02-26T20:30:00Z
Температура C
4.0
Точка росы
4.0
Направление ветра
250
Скорость ветра (узлы)
17
Метео видимость
0.56
Явления погоды
FG
Условия полета
LIFR
Аэропорт подробнее: 

Авиационная погода в Кадале

Регион: 
Погода METAR: 
UIAA 262030Z 27002MPS 5000 -SHSN SCT043CB M12/M14 Q1005 R29/410160 NOSIG RMK QFE695/0927
Время наблюдения
2021-02-26T20:30:00Z
Температура C
-12.0
Точка росы
-14.0
Направление ветра
270
Скорость ветра (узлы)
4
Метео видимость
3.11
Явления погоды
-SHSN
Условия полета
MVFR
Аэропорт подробнее: 

Авиационная погода в Чернобаевке

Регион: 
Погода METAR: 
UKOH 262030Z 21005MPS 4900 BR NSC 03/03 Q1020 R03/CLRD65 TEMPO 2100 BR BKN007 BKN015CB
Время наблюдения
2021-02-26T20:30:00Z
Температура C
3.0
Точка росы
3.0
Направление ветра
210
Скорость ветра (узлы)
10
Метео видимость
3.04
Явления погоды
BR
Условия полета
MVFR
Аэропорт подробнее: 

Авиационная погода в Алматы

Регион: 
Погода METAR: 
UAAA 262030Z 26002MPS 3000 BR FU SCT100 BKN200 M13/M17 Q1026 R23R/CLRD65 R23L/91//60 NOSIG
Время наблюдения
2021-02-26T20:30:00Z
Температура C
-13.0
Точка росы
-17.0
Направление ветра
260
Скорость ветра (узлы)
4
Метео видимость
1.86
Явления погоды
BR FU
Условия полета
IFR
Аэропорт подробнее: